Etusivu
METAR-TAF:

METAR-TAF

Lentoasemat :

Şanlıurfa, Turkki

Leveyspiiri: 37-27N, Pituuspiiri: 38-54E, korkeus merenpinnasta: 823 m

Tämänhetkinen sää

Tämä raportti tehtiin 33 minuuttia sitten, kello 11.20 UTC
Tuuli 6 kn pohjoisen/luoteesta, vaihdellen luoteen ja pohjoisen/koillisen välillä
Lämpötila 13°C
Kosteus 58%
Ilmanpaine 1022 hPa
Näkyvyys 10 km tai enemmän
Muutamia pilviä 4000 ft:n korkeudessa
Hajanaisia pilviä 10000 ft:n korkeudessa

METAR: LTCS 041120Z 34006KT 320V030 9999 FEW040 SCT100 13/05 Q1022 RMK RWY22 01005KT 310V040 1CU040 3AC100

Aika: 14:53 (11:53 UTC)

Sääennuste

Tämä raportti tehtiin 1 tunti ja 13 minuuttia sitten, kello 10.40 UTC
Ennuste voimassa 04. päivästä klo 12 UTC - 05. päivään klo 12 UTC
Tuuli 7 kn pohjoisen/luoteesta
Näkyvyys 10 km tai enemmän
ei pilviä alle 1500 m:ssä eikä cumulonimbus-pilviä

TAF: LTCS 041040Z 0412/0512 33007KT CAVOK

Säähavainnot ja -ennusteet yli 4000 lentoasemalta (METAR- ja TAF-raportit).

Käytössä olevat sääasemat on merkitty karttaan keltaisilla ja punaisilla pisteillä.

Aseta hiiri pisteen päälle nähdäksesi sääaseman nimen.

Klikkaa sitten nähdäksesi säähavainnot ja -ennusteet.

Kartan vaihtaminen: klikkaa mustalla rastilla varustettuja vihreitä pisteitä, niin voit zoomata sisään; viivalla varustettua vihreää pistettä, niin voit zoomata ulos tai vihreitä nuolia, niin pääset viereisille kartoille.


METAR-TAF: